Terminal Aerodrome Forecast
Issued by NWS

Home | Current Version | Previous Version | Text Only | Print | Product List | Glossary On
Versions: 1 2 3 4 5 6 7 8 9 10 11 12 13 14 15 16
731
FTUS46 KMFR 271303 AAB
TAFLMT
TAF AMD
KLMT 271303Z 2713/2812 00000KT 1/4SM FG VV002
     FM271400 VRB03KT P6SM SKC
     FM272100 28007KT P6SM FEW080
     FM280000 31012G20KT P6SM FEW090
     FM280500 30005KT P6SM SKC=

USA.gov is the U.S. government's official web portal to all federal, state and local government web resources and services.